Time;durP1;ratioP1;P1;durP2;ratioP2;P2;SDS_P1;SDS_P2;PMS_P1;PMS_P2;Temp;Humidity;BMP_temperature;BMP_pressure;BME280_temperature;BME280_humidity;BME280_pressure;Samples;Min_cycle;Max_cycle;Signal;HPM_P1;HPM_P2
2022/01/11 00:01:42;;;;;;;6.80;5.00;;;15.90;40.20;;;;;;5054196;28;20570;-39
2022/01/11 00:04:14;;;;;;;6.35;4.80;;;16.00;40.10;;;;;;5054185;28;20033;-39
2022/01/11 00:06:47;;;;;;;7.15;5.07;;;16.10;40.00;;;;;;5037049;28;20025;-39
2022/01/11 00:09:46;;;;;;;7.30;4.95;;;16.20;39.80;;;;;;5054631;28;20020;-36
2022/01/11 00:12:08;;;;;;;7.13;4.88;;;16.30;39.60;;;;;;5051280;28;20074;-36
2022/01/11 00:14:34;;;;;;;6.20;4.60;;;16.30;39.40;;;;;;5054453;28;20120;-37
2022/01/11 00:17:00;;;;;;;5.75;4.50;;;16.40;39.30;;;;;;5053998;28;20013;-36
2022/01/11 00:19:29;;;;;;;6.72;4.53;;;16.40;39.10;;;;;;5054252;28;20579;-37
2022/01/11 00:21:55;;;;;;;6.90;4.70;;;16.50;39.00;;;;;;5054570;28;20079;-36
2022/01/11 00:24:29;;;;;;;5.47;4.70;;;16.60;38.90;;;;;;5054532;28;20013;-37
2022/01/11 00:27:05;;;;;;;6.15;4.55;;;16.60;38.70;;;;;;5054420;28;20017;-37
2022/01/11 00:29:32;;;;;;;6.53;4.50;;;16.70;38.70;;;;;;5054214;28;20015;-38
2022/01/11 00:32:03;;;;;;;5.60;4.30;;;16.70;38.60;;;;;;5053962;28;20025;-37
2022/01/11 00:34:39;;;;;;;5.65;4.28;;;16.80;38.50;;;;;;5054338;28;20013;-37
2022/01/11 00:37:06;;;;;;;5.93;4.35;;;16.80;38.40;;;;;;5054324;28;20017;-37
2022/01/11 00:39:31;;;;;;;6.65;4.38;;;16.80;38.30;;;;;;5054394;28;20017;-37
2022/01/11 00:41:57;;;;;;;6.80;4.93;;;16.90;38.30;;;;;;5036634;28;20063;-37
2022/01/11 00:44:23;;;;;;;6.15;4.60;;;16.90;38.70;;;;;;5054475;28;20425;-37
2022/01/11 00:46:49;;;;;;;6.22;4.65;;;16.90;38.10;;;;;;5036075;28;20025;-37
2022/01/11 00:49:14;;;;;;;5.15;4.10;;;16.90;38.00;;;;;;5036739;28;20043;-37
2022/01/11 00:51:41;;;;;;;6.40;4.43;;;17.00;38.00;;;;;;5054931;28;20028;-37
2022/01/11 00:54:07;;;;;;;6.07;4.32;;;17.00;37.90;;;;;;5054490;28;20052;-37
2022/01/11 00:56:33;;;;;;;6.20;4.35;;;17.10;37.90;;;;;;5035961;28;20068;-36
2022/01/11 00:58:59;;;;;;;6.80;4.60;;;17.10;37.90;;;;;;5053562;28;20481;-36
2022/01/11 01:01:27;;;;;;;6.32;4.80;;;17.10;37.80;;;;;;5053117;28;20040;-37
2022/01/11 01:03:56;;;;;;;5.75;4.40;;;17.10;37.80;;;;;;5053318;28;20013;-36
2022/01/11 01:06:22;;;;;;;5.70;4.50;;;17.10;37.70;;;;;;5052833;28;20024;-36
2022/01/11 01:08:49;;;;;;;6.03;4.50;;;17.10;37.70;;;;;;5052831;28;20071;-37
2022/01/11 01:11:15;;;;;;;5.28;4.38;;;17.20;37.70;;;;;;5053029;28;20021;-36
2022/01/11 01:13:42;;;;;;;6.55;4.75;;;17.20;37.60;;;;;;5039020;28;20043;-36
2022/01/11 01:16:08;;;;;;;5.72;4.40;;;17.20;37.60;;;;;;5056203;28;20017;-36
2022/01/11 01:18:36;;;;;;;5.80;4.10;;;17.20;37.50;;;;;;5056444;28;20036;-36
2022/01/11 01:21:02;;;;;;;5.72;4.32;;;17.20;37.50;;;;;;5055838;28;20056;-36
2022/01/11 01:23:28;;;;;;;5.28;4.22;;;17.20;37.50;;;;;;5056248;28;20025;-36
2022/01/11 01:25:54;;;;;;;6.15;4.15;;;17.20;37.40;;;;;;5038820;28;20522;-42
2022/01/11 01:28:20;;;;;;;6.20;4.13;;;17.30;37.40;;;;;;5055862;28;20033;-39
2022/01/11 01:30:47;;;;;;;6.78;4.65;;;17.30;37.40;;;;;;5056130;28;20025;-39
2022/01/11 01:33:13;;;;;;;6.55;4.72;;;17.30;37.30;;;;;;5056145;28;20044;-38
2022/01/11 01:35:40;;;;;;;5.93;4.25;;;17.30;37.30;;;;;;5055929;28;20040;-38
2022/01/11 01:38:07;;;;;;;5.75;4.38;;;17.30;37.30;;;;;;5055755;28;20483;-39
2022/01/11 01:40:38;;;;;;;6.30;4.30;;;17.30;37.20;;;;;;5056071;28;20122;-39
2022/01/11 01:43:05;;;;;;;8.18;5.05;;;17.40;37.20;;;;;;5055673;28;20013;-38
2022/01/11 01:45:31;;;;;;;6.00;4.43;;;17.40;37.20;;;;;;5055601;28;20013;-38
2022/01/11 01:47:58;;;;;;;5.85;4.47;;;17.40;37.20;;;;;;5055662;28;20101;-39
2022/01/11 01:50:25;;;;;;;5.25;4.20;;;17.40;37.20;;;;;;5038055;28;20594;-37
2022/01/11 01:52:51;;;;;;;6.63;4.57;;;17.30;37.10;;;;;;5055821;28;20017;-37
2022/01/11 01:55:17;;;;;;;5.32;4.05;;;17.40;37.10;;;;;;5038004;28;20055;-36
2022/01/11 01:57:43;;;;;;;6.63;4.60;;;17.40;37.10;;;;;;5055669;28;20017;-36
2022/01/11 02:00:13;;;;;;;5.72;4.30;;;17.40;37.00;;;;;;5038168;28;20052;-36
2022/01/11 02:02:39;;;;;;;5.93;4.43;;;17.40;37.00;;;;;;5037814;28;20027;-37
2022/01/11 02:05:06;;;;;;;5.07;3.95;;;17.40;37.00;;;;;;5055280;28;20055;-36
2022/01/11 02:07:35;;;;;;;5.60;4.40;;;17.40;36.90;;;;;;5038459;28;20023;-36
2022/01/11 02:10:01;;;;;;;6.07;4.28;;;17.40;36.90;;;;;;5056090;28;20013;-36
2022/01/11 02:12:29;;;;;;;5.38;4.25;;;17.50;36.90;;;;;;5056106;28;20013;-36
2022/01/11 02:14:55;;;;;;;5.50;4.22;;;17.50;37.40;;;;;;5037771;28;20021;-36
2022/01/11 02:17:20;;;;;;;6.13;4.50;;;17.50;36.90;;;;;;5055385;28;20364;-36
2022/01/11 02:19:46;;;;;;;5.32;4.22;;;17.50;36.90;;;;;;5037191;28;20013;-37
2022/01/11 02:22:15;;;;;;;6.57;4.57;;;17.40;36.80;;;;;;5036745;28;20537;-38
2022/01/11 02:24:41;;;;;;;5.43;4.20;;;17.40;36.80;;;;;;5055010;28;20013;-36
2022/01/11 02:27:08;;;;;;;6.93;4.20;;;17.50;36.80;;;;;;5054918;28;20116;-36
2022/01/11 02:29:34;;;;;;;5.20;4.07;;;17.50;36.70;;;;;;5054934;28;20092;-39
2022/01/11 02:32:00;;;;;;;5.57;4.00;;;17.50;36.70;;;;;;5037302;28;20060;-40
2022/01/11 02:34:26;;;;;;;6.60;4.63;;;17.60;36.70;;;;;;5036852;28;20044;-39
2022/01/11 02:36:52;;;;;;;5.63;4.10;;;17.60;36.60;;;;;;5054478;28;20021;-39
2022/01/11 02:39:17;;;;;;;5.00;4.10;;;17.50;36.60;;;;;;5036678;28;20036;-39
2022/01/11 02:41:54;;;;;;;6.25;4.40;;;17.60;36.70;;;;;;5054472;28;20391;-38
2022/01/11 02:44:20;;;;;;;5.10;4.30;;;17.60;36.60;;;;;;5054373;28;20049;-39
2022/01/11 02:46:45;;;;;;;6.03;4.28;;;17.60;36.50;;;;;;5054568;28;20091;-39
2022/01/11 02:49:11;;;;;;;5.43;4.38;;;17.60;36.50;;;;;;5054646;28;20035;-38
2022/01/11 02:51:38;;;;;;;6.10;4.22;;;17.60;36.50;;;;;;5037055;28;20230;-36
2022/01/11 02:54:05;;;;;;;5.35;4.43;;;17.60;36.50;;;;;;5055120;28;20024;-36
2022/01/11 02:56:31;;;;;;;4.95;4.15;;;17.60;36.50;;;;;;5014169;28;20513;-37
2022/01/11 02:58:58;;;;;;;4.93;3.75;;;17.60;36.40;;;;;;5014167;28;20022;-37
2022/01/11 03:01:24;;;;;;;6.28;4.53;;;17.60;36.30;;;;;;5015026;28;20030;-37
2022/01/11 03:03:51;;;;;;;6.13;4.20;;;17.60;36.30;;;;;;5014517;28;20072;-36
2022/01/11 03:06:17;;;;;;;6.07;4.22;;;17.60;36.30;;;;;;5014670;28;20014;-37
2022/01/11 03:08:43;;;;;;;5.70;4.40;;;17.60;36.30;;;;;;5013223;28;20107;-36
2022/01/11 03:11:10;;;;;;;5.63;4.38;;;17.60;36.30;;;;;;5014271;28;20113;-36
2022/01/11 03:13:38;;;;;;;5.47;4.22;;;17.70;36.30;;;;;;5014194;28;20024;-36
2022/01/11 03:16:05;;;;;;;4.85;3.97;;;17.60;36.20;;;;;;5014317;28;20022;-36
2022/01/11 03:18:31;;;;;;;5.03;3.75;;;17.70;36.10;;;;;;5012902;28;20053;-36
2022/01/11 03:20:57;;;;;;;5.63;4.15;;;17.80;36.00;;;;;;5013925;28;20508;-36
2022/01/11 03:23:23;;;;;;;4.32;3.90;;;17.80;35.90;;;;;;5013025;28;20042;-36
2022/01/11 03:25:51;;;;;;;5.70;4.03;;;17.80;35.80;;;;;;5013849;28;20010;-37
2022/01/11 03:28:16;;;;;;;4.53;3.70;;;17.90;35.70;;;;;;5013839;28;20051;-38
2022/01/11 03:30:42;;;;;;;4.47;3.90;;;18.00;35.60;;;;;;5013809;28;20022;-38
2022/01/11 03:33:08;;;;;;;4.80;4.00;;;18.00;35.50;;;;;;5014051;28;20018;-39
2022/01/11 03:35:35;;;;;;;5.72;4.13;;;18.00;35.40;;;;;;5012937;28;20022;-39
2022/01/11 03:38:04;;;;;;;4.32;3.90;;;18.10;35.40;;;;;;5014021;28;20093;-38
2022/01/11 03:40:29;;;;;;;5.10;3.60;;;18.10;35.30;;;;;;5012365;28;20116;-38
2022/01/11 03:42:55;;;;;;;4.53;3.50;;;18.20;35.20;;;;;;5013662;28;20136;-39
2022/01/11 03:45:21;;;;;;;4.80;3.80;;;18.20;35.10;;;;;;5013662;28;20500;-38
2022/01/11 03:47:47;;;;;;;4.68;3.60;;;18.30;35.10;;;;;;5013538;28;20014;-37
2022/01/11 03:50:13;;;;;;;4.40;3.90;;;18.30;34.90;;;;;;5013493;28;20009;-36
2022/01/11 03:52:39;;;;;;;5.60;4.25;;;18.40;34.80;;;;;;5012279;28;20492;-36
2022/01/11 03:55:11;;;;;;;5.28;3.70;;;18.50;34.70;;;;;;5028885;28;20071;-36
2022/01/11 03:57:37;;;;;;;5.07;3.70;;;18.50;34.60;;;;;;5053414;28;20016;-36
2022/01/11 04:00:18;;;;;;;4.88;3.70;;;18.50;34.50;;;;;;5035533;28;20031;-36
2022/01/11 04:02:44;;;;;;;;;;;18.60;34.40;;;;;;5053697;28;20460;-36
2022/01/11 04:05:12;;;;;;;5.53;3.72;;;18.60;34.40;;;;;;5035304;28;19909;-37
2022/01/11 04:07:38;;;;;;;5.68;4.10;;;18.70;34.30;;;;;;5052810;28;20530;-36
2022/01/11 04:10:04;;;;;;;5.13;3.72;;;18.70;34.20;;;;;;5035076;28;20017;-36
2022/01/11 04:12:30;;;;;;;5.13;3.97;;;18.80;34.00;;;;;;5053028;28;20400;-37
2022/01/11 04:14:56;;;;;;;5.32;3.95;;;18.80;34.00;;;;;;5052744;28;20020;-36
2022/01/11 04:17:22;;;;;;;4.82;3.72;;;18.80;33.80;;;;;;5053274;28;20013;-36
2022/01/11 04:19:48;;;;;;;4.05;3.60;;;18.90;33.70;;;;;;5052773;28;20466;-36
2022/01/11 04:22:14;;;;;;;4.28;3.60;;;19.00;33.70;;;;;;5052581;28;20502;-36
2022/01/11 04:24:41;;;;;;;4.68;3.60;;;19.00;33.60;;;;;;5052987;28;20021;-36
2022/01/11 04:27:06;;;;;;;6.28;3.95;;;19.00;33.50;;;;;;5052756;28;20013;-36
2022/01/11 04:29:32;;;;;;;4.65;3.60;;;19.10;33.50;;;;;;5035027;28;20023;-36
2022/01/11 04:31:58;;;;;;;4.15;3.53;;;19.10;33.50;;;;;;5053013;28;20382;-36
2022/01/11 04:34:25;;;;;;;4.65;3.60;;;19.20;33.40;;;;;;5053061;28;20028;-36
2022/01/11 04:36:51;;;;;;;5.03;3.70;;;19.20;33.30;;;;;;5053073;28;20060;-36
2022/01/11 04:39:17;;;;;;;4.72;3.50;;;19.20;33.20;;;;;;5052690;28;20048;-36
2022/01/11 04:41:43;;;;;;;4.00;3.20;;;19.30;33.10;;;;;;5052672;28;20559;-36
2022/01/11 04:44:09;;;;;;;4.07;3.30;;;19.30;33.00;;;;;;5052495;28;20052;-36
2022/01/11 04:46:35;;;;;;;4.75;3.75;;;19.40;32.90;;;;;;5037397;28;20041;-36
2022/01/11 04:49:01;;;;;;;5.70;4.28;;;19.40;32.80;;;;;;5038811;28;20104;-36
2022/01/11 04:51:27;;;;;;;4.15;3.63;;;19.40;32.70;;;;;;5056885;28;20020;-37
2022/01/11 04:53:53;;;;;;;4.32;3.72;;;19.50;32.70;;;;;;5038865;28;20476;-36
2022/01/11 04:56:19;;;;;;;4.25;3.50;;;19.50;32.60;;;;;;5056339;28;20041;-36
2022/01/11 04:58:45;;;;;;;4.50;3.47;;;19.50;33.10;;;;;;5056437;28;20029;-36
2022/01/11 05:01:11;;;;;;;4.30;3.50;;;19.60;32.50;;;;;;5056654;28;20029;-36
2022/01/11 05:03:37;;;;;;;4.20;3.60;;;19.60;32.40;;;;;;5056286;28;20383;-37
2022/01/11 05:06:04;;;;;;;4.05;3.58;;;19.70;32.30;;;;;;5038794;28;20084;-36
2022/01/11 05:08:30;;;;;;;4.13;3.67;;;19.80;32.30;;;;;;5056137;28;20040;-36
2022/01/11 05:10:57;;;;;;;4.03;3.40;;;19.70;32.20;;;;;;5038630;28;20521;-36
2022/01/11 05:13:23;;;;;;;4.60;3.55;;;19.80;32.20;;;;;;5038383;28;20021;-36
2022/01/11 05:15:49;;;;;;;5.00;3.35;;;19.80;32.00;;;;;;5056140;28;20028;-36
2022/01/11 05:18:14;;;;;;;4.65;3.78;;;19.90;32.00;;;;;;5056365;28;20055;-36
2022/01/11 05:20:40;;;;;;;3.65;3.35;;;19.90;31.90;;;;;;5055993;28;20060;-36
2022/01/11 05:23:06;;;;;;;4.97;3.47;;;19.90;31.80;;;;;;5056163;28;20024;-36
2022/01/11 05:25:32;;;;;;;4.35;3.40;;;19.90;31.80;;;;;;5056227;28;20017;-36
2022/01/11 05:28:01;;;;;;;4.72;3.72;;;19.90;31.80;;;;;;5037905;28;20479;-36
2022/01/11 05:30:30;;;;;;;3.72;3.17;;;19.90;31.90;;;;;;5056051;28;20039;-35
2022/01/11 05:32:55;;;;;;;4.20;3.58;;;19.90;31.90;;;;;;5056035;28;20017;-36
2022/01/11 05:35:22;;;;;;;4.28;3.40;;;19.90;31.80;;;;;;5038400;28;20353;-36
2022/01/11 05:37:49;;;;;;;4.57;3.60;;;19.90;31.80;;;;;;5055605;28;20100;-36
2022/01/11 05:40:15;;;;;;;4.65;3.65;;;19.90;31.70;;;;;;5057518;28;20029;-36
2022/01/11 05:42:41;;;;;;;4.43;3.60;;;19.90;31.80;;;;;;5055995;28;20017;-36
2022/01/11 05:45:08;;;;;;;4.30;3.60;;;20.00;31.70;;;;;;5055838;28;20013;-35
2022/01/11 05:47:34;;;;;;;4.82;3.70;;;20.00;31.60;;;;;;5037764;28;20017;-36
2022/01/11 05:50:03;;;;;;;4.32;3.30;;;20.00;31.60;;;;;;5055742;28;20017;-38
2022/01/11 05:52:29;;;;;;;4.15;3.42;;;20.00;31.50;;;;;;5055409;28;20087;-38
2022/01/11 05:54:55;;;;;;;4.20;3.50;;;20.10;31.40;;;;;;5055152;28;20037;-38
2022/01/11 05:57:20;;;;;;;3.80;3.28;;;20.10;31.90;;;;;;5036980;28;20100;-38
2022/01/11 05:59:46;;;;;;;4.00;3.60;;;20.20;31.40;;;;;;5037501;28;20506;-38
2022/01/11 06:02:12;;;;;;;4.05;3.13;;;20.20;31.30;;;;;;5055309;28;20515;-38
2022/01/11 06:04:38;;;;;;;4.38;3.50;;;20.20;31.20;;;;;;5041619;28;20033;-38
2022/01/11 06:07:05;;;;;;;3.70;3.30;;;20.20;31.10;;;;;;5040541;28;20471;-39
2022/01/11 06:09:30;;;;;;;4.10;3.28;;;20.30;31.10;;;;;;5058676;28;20062;-39
2022/01/11 06:11:56;;;;;;;4.70;3.40;;;20.30;31.10;;;;;;5058047;28;20009;-39
2022/01/11 06:14:22;;;;;;;3.58;3.17;;;20.30;31.00;;;;;;5040745;28;20021;-39
2022/01/11 06:16:48;;;;;;;4.47;3.65;;;20.30;30.90;;;;;;5058568;28;20522;-39
2022/01/11 06:19:14;;;;;;;4.10;3.42;;;20.30;30.90;;;;;;5058250;28;20028;-41
2022/01/11 06:21:40;;;;;;;4.40;3.35;;;20.30;30.90;;;;;;5058293;28;20070;-39
2022/01/11 06:24:07;;;;;;;3.83;3.30;;;20.30;30.90;;;;;;5057910;28;20021;-40
2022/01/11 06:26:33;;;;;;;3.75;3.28;;;20.30;30.90;;;;;;5057897;28;20013;-39
2022/01/11 06:29:01;;;;;;;4.10;3.03;;;20.30;30.90;;;;;;5057319;28;20009;-35
2022/01/11 06:31:27;;;;;;;3.53;3.17;;;20.40;30.90;;;;;;5039090;28;20017;-36
2022/01/11 06:33:53;;;;;;;3.83;3.35;;;20.30;30.80;;;;;;5054869;28;20013;-36
2022/01/11 06:36:20;;;;;;;4.97;3.60;;;20.40;30.80;;;;;;5054340;28;20013;-36
2022/01/11 06:38:46;;;;;;;3.70;3.17;;;20.40;30.80;;;;;;5036451;28;20032;-36
2022/01/11 06:41:11;;;;;;;3.72;3.17;;;20.40;30.70;;;;;;5053967;28;20029;-36
2022/01/11 06:43:37;;;;;;;4.68;3.13;;;20.40;30.70;;;;;;5054410;28;20005;-36
2022/01/11 06:46:04;;;;;;;4.18;3.40;;;20.50;30.60;;;;;;5054384;28;20035;-36
2022/01/11 06:48:30;;;;;;;3.72;3.33;;;20.50;30.60;;;;;;5036313;28;20025;-37
2022/01/11 06:50:55;;;;;;;3.50;3.10;;;20.50;30.60;;;;;;5053716;28;20021;-36
2022/01/11 06:53:21;;;;;;;3.60;3.10;;;20.50;30.50;;;;;;5051764;28;21164;-36
2022/01/11 06:55:49;;;;;;;4.25;3.30;;;20.60;30.50;;;;;;5053645;28;20083;-36
2022/01/11 06:58:16;;;;;;;3.90;3.50;;;20.60;30.40;;;;;;5053230;28;20016;-36
2022/01/11 07:00:42;;;;;;;4.47;3.53;;;20.60;30.30;;;;;;5053396;28;20096;-36
2022/01/11 07:03:08;;;;;;;3.53;2.95;;;20.60;30.30;;;;;;5052951;28;20013;-37
2022/01/11 07:05:34;;;;;;;4.82;3.30;;;20.60;30.30;;;;;;5053106;28;20494;-37
2022/01/11 07:08:00;;;;;;;3.88;3.45;;;20.60;30.30;;;;;;5034987;28;20029;-36
2022/01/11 07:10:26;;;;;;;3.75;3.33;;;20.60;30.40;;;;;;5035020;28;20021;-37
2022/01/11 07:12:52;;;;;;;4.28;3.10;;;20.60;30.50;;;;;;5018120;28;20336;-37
2022/01/11 07:15:19;;;;;;;4.72;3.28;;;20.50;30.90;;;;;;5052327;28;20029;-38
2022/01/11 07:17:45;;;;;;;5.63;3.35;;;20.50;30.40;;;;;;5052535;28;20048;-39
2022/01/11 07:20:11;;;;;;;4.95;3.50;;;20.50;30.40;;;;;;5033772;28;20448;-40
2022/01/11 07:22:37;;;;;;;4.35;3.22;;;20.40;30.30;;;;;;5017503;28;20150;-36
2022/01/11 07:25:04;;;;;;;5.80;3.67;;;20.30;30.30;;;;;;5052769;28;20016;-34
2022/01/11 07:27:33;;;;;;;7.95;4.03;;;20.30;30.40;;;;;;5052982;28;20043;-35
2022/01/11 07:29:58;;;;;;;8.88;4.55;;;20.30;31.10;;;;;;5052662;28;20020;-35
2022/01/11 07:32:25;;;;;;;7.50;4.28;;;20.30;31.60;;;;;;5052763;28;20100;-35
2022/01/11 07:34:52;;;;;;;6.93;4.32;;;20.40;32.20;;;;;;5052790;28;20366;-37
2022/01/11 07:37:19;;;;;;;10.15;5.00;;;20.50;32.30;;;;;;5034576;28;20029;-35
2022/01/11 07:39:45;;;;;;;12.88;4.15;;;20.50;32.30;;;;;;5035019;28;20021;-44
2022/01/11 07:42:10;;;;;;;8.65;4.15;;;20.60;32.40;;;;;;5052361;28;20025;-35
2022/01/11 07:44:37;;;;;;;8.32;4.35;;;20.60;32.50;;;;;;5052300;28;20040;-35
2022/01/11 07:47:04;;;;;;;6.65;4.15;;;20.70;32.70;;;;;;5053121;28;20033;-36
2022/01/11 07:49:30;;;;;;;11.02;4.95;;;20.70;32.60;;;;;;5052818;28;20082;-34
2022/01/11 07:51:55;;;;;;;11.75;4.75;;;20.70;32.70;;;;;;5052667;28;20468;-35
2022/01/11 07:54:22;;;;;;;6.93;4.95;;;20.80;32.80;;;;;;5052449;28;20065;-35
2022/01/11 07:56:50;;;;;;;10.25;5.28;;;20.80;32.80;;;;;;5052968;28;20040;-35
2022/01/11 07:59:16;;;;;;;10.35;5.15;;;20.80;32.60;;;;;;5052214;28;20021;-35
2022/01/11 08:01:42;;;;;;;9.82;5.20;;;20.80;32.60;;;;;;5052030;28;20044;-35
2022/01/11 08:04:08;;;;;;;9.68;5.13;;;20.90;32.60;;;;;;5052149;28;20455;-35
2022/01/11 08:06:34;;;;;;;11.55;5.18;;;20.90;32.60;;;;;;5052432;28;20021;-35
2022/01/11 08:09:00;;;;;;;9.70;5.18;;;20.90;32.60;;;;;;5052181;28;20519;-35
2022/01/11 08:11:26;;;;;;;13.90;5.75;;;21.00;32.60;;;;;;5052226;28;20047;-35
2022/01/11 08:13:54;;;;;;;9.07;5.10;;;20.90;32.40;;;;;;5032682;28;20420;-36
2022/01/11 08:16:20;;;;;;;8.65;5.35;;;21.00;32.50;;;;;;5051119;28;20017;-41
2022/01/11 08:18:46;;;;;;;14.82;6.35;;;20.80;32.40;;;;;;5051558;28;20033;-37
2022/01/11 08:21:12;;;;;;;19.48;7.07;;;20.50;32.30;;;;;;5033582;28;20029;-35
2022/01/11 08:23:38;;;;;;;18.83;6.85;;;20.40;33.10;;;;;;5052207;28;20027;-34
2022/01/11 08:26:05;;;;;;;12.50;7.30;;;20.40;33.40;;;;;;5033323;28;20040;-35
2022/01/11 08:28:31;;;;;;;11.80;6.88;;;20.50;33.40;;;;;;5051502;28;20029;-34
2022/01/11 08:30:59;;;;;;;14.70;7.53;;;20.50;33.50;;;;;;5052458;28;20081;-34
2022/01/11 08:33:25;;;;;;;16.90;7.13;;;20.60;33.40;;;;;;5035021;28;20490;-35
2022/01/11 08:35:51;;;;;;;14.07;7.28;;;20.60;33.30;;;;;;5035190;28;20104;-34
2022/01/11 08:38:17;;;;;;;16.70;7.90;;;20.60;33.00;;;;;;5053031;28;20021;-34
2022/01/11 08:40:42;;;;;;;14.35;8.20;;;20.60;33.40;;;;;;5053087;28;20498;-35
2022/01/11 08:43:11;;;;;;;16.30;7.80;;;20.60;33.20;;;;;;5034567;28;20067;-34
2022/01/11 08:45:39;;;;;;;16.88;7.70;;;20.60;33.20;;;;;;5052312;28;20112;-34
2022/01/11 08:48:05;;;;;;;16.88;7.70;;;20.50;33.40;;;;;;5034454;28;20096;-34
2022/01/11 08:50:31;;;;;;;12.05;6.90;;;20.50;33.50;;;;;;5052974;28;20119;-34
2022/01/11 08:52:57;;;;;;;12.63;7.75;;;20.60;34.00;;;;;;5052587;28;20124;-35
2022/01/11 08:55:23;;;;;;;12.43;7.57;;;20.60;33.20;;;;;;5052058;28;20502;-38
2022/01/11 08:57:52;;;;;;;14.73;7.57;;;20.60;33.50;;;;;;5017618;28;20017;-34
2022/01/11 09:00:18;;;;;;;13.82;8.27;;;20.60;33.40;;;;;;5052333;28;20154;-34
2022/01/11 09:02:48;;;;;;;13.95;7.93;;;20.60;33.30;;;;;;5051354;28;20434;-36
2022/01/11 09:05:14;;;;;;;11.52;7.75;;;20.60;33.30;;;;;;5051785;28;20028;-35
2022/01/11 09:07:41;;;;;;;12.85;7.38;;;20.50;33.20;;;;;;5052608;28;20143;-34
2022/01/11 09:10:07;;;;;;;13.55;8.13;;;20.50;32.80;;;;;;5035595;28;20021;-35
2022/01/11 09:12:33;;;;;;;22.90;9.10;;;20.30;32.30;;;;;;5053236;28;20123;-35
2022/01/11 09:14:59;;;;;;;15.27;8.90;;;20.10;31.80;;;;;;5051489;28;20379;-34
2022/01/11 09:17:25;;;;;;;15.00;9.20;;;19.90;31.60;;;;;;5032481;28;20005;-35
2022/01/11 09:19:51;;;;;;;13.95;9.23;;;19.70;31.40;;;;;;5051378;28;20057;-35
2022/01/11 09:22:17;;;;;;;16.60;9.93;;;19.70;31.30;;;;;;5052280;28;20064;-36
2022/01/11 09:24:43;;;;;;;16.27;10.15;;;19.50;31.00;;;;;;5052138;28;20356;-36
2022/01/11 09:27:14;;;;;;;14.40;9.77;;;19.50;30.80;;;;;;5052269;28;20016;-35
2022/01/11 09:29:43;;;;;;;16.05;9.80;;;19.50;30.50;;;;;;5034861;28;20421;-35
2022/01/11 09:32:09;;;;;;;18.55;10.27;;;19.40;30.40;;;;;;5035853;28;20025;-36
2022/01/11 09:34:37;;;;;;;18.05;10.32;;;19.40;30.20;;;;;;5038348;28;20033;-36
2022/01/11 09:37:12;;;;;;;15.85;10.18;;;19.30;30.10;;;;;;5055907;28;20545;-36
2022/01/11 09:39:39;;;;;;;16.23;10.25;;;19.30;30.00;;;;;;5055706;28;20093;-35
2022/01/11 09:42:06;;;;;;;16.98;9.32;;;19.20;30.00;;;;;;5055554;28;20071;-36
2022/01/11 09:44:33;;;;;;;14.30;9.70;;;19.20;29.90;;;;;;5037642;28;20037;-36
2022/01/11 09:47:04;;;;;;;15.02;9.80;;;19.20;30.30;;;;;;5055872;28;20017;-37
2022/01/11 09:49:30;;;;;;;15.50;9.50;;;19.10;29.70;;;;;;5037201;28;20428;-35
2022/01/11 09:51:55;;;;;;;16.52;10.02;;;19.10;29.70;;;;;;5037516;28;20019;-36
2022/01/11 09:54:24;;;;;;;15.63;9.88;;;19.10;29.60;;;;;;5037300;28;20041;-36
2022/01/11 09:56:50;;;;;;;14.45;9.98;;;19.10;29.60;;;;;;5055362;28;20458;-36
2022/01/11 09:59:17;;;;;;;15.55;10.05;;;19.00;29.60;;;;;;5054731;28;20017;-35
2022/01/11 10:01:43;;;;;;;17.42;10.25;;;19.00;29.60;;;;;;5037109;28;20135;-35
2022/01/11 10:04:11;;;;;;;13.27;9.27;;;19.00;29.50;;;;;;5037441;28;20029;-35
2022/01/11 10:06:42;;;;;;;15.00;9.90;;;18.90;29.60;;;;;;5055025;28;20013;-36
2022/01/11 10:09:11;;;;;;;14.43;10.07;;;19.00;29.50;;;;;;5054874;28;20086;-36
2022/01/11 10:11:38;;;;;;;18.08;10.85;;;18.90;29.60;;;;;;5037822;28;20023;-35
2022/01/11 10:14:29;;;;;;;17.67;10.93;;;18.10;30.30;;;;;;5054708;28;20066;-36
2022/01/11 10:17:07;;;;;;;16.60;9.50;;;18.00;31.80;;;;;;5043627;28;20076;-35
2022/01/11 10:19:33;;;;;;;20.75;8.85;;;18.50;31.60;;;;;;5054662;28;20017;-35
2022/01/11 10:22:01;;;;;;;13.20;8.15;;;19.00;31.30;;;;;;5054922;28;20074;-36
2022/01/11 10:24:39;;;;;;;14.00;8.15;;;19.40;31.20;;;;;;5020127;28;20021;-35
2022/01/11 10:27:26;;;;;;;13.38;7.70;;;19.60;31.20;;;;;;5054314;28;20475;-36
2022/01/11 10:30:09;;;;;;;11.82;6.47;;;20.00;31.20;;;;;;5054074;28;20472;-35
2022/01/11 10:32:39;;;;;;;11.52;6.53;;;20.10;31.30;;;;;;5054950;28;20014;-36
2022/01/11 10:35:07;;;;;;;10.63;6.07;;;20.30;31.30;;;;;;5054994;28;20013;-35
2022/01/11 10:37:38;;;;;;;10.98;6.65;;;20.40;31.20;;;;;;5055340;28;20043;-35
2022/01/11 10:40:19;;;;;;;15.73;6.35;;;20.50;31.20;;;;;;5054938;28;20013;-36
2022/01/11 10:43:06;;;;;;;12.60;6.60;;;20.60;31.60;;;;;;5054669;28;20021;-34
2022/01/11 10:45:33;;;;;;;17.67;7.97;;;20.50;31.50;;;;;;5054393;28;20124;-35
2022/01/11 10:48:01;;;;;;;10.65;6.90;;;20.40;31.20;;;;;;5054440;28;20467;-35
2022/01/11 10:50:35;;;;;;;11.65;7.32;;;20.40;31.20;;;;;;5054509;28;20013;-35
2022/01/11 10:53:03;;;;;;;12.48;7.63;;;20.40;31.20;;;;;;5054373;28;20234;-35
2022/01/11 10:55:30;;;;;;;12.80;8.32;;;20.40;31.10;;;;;;5055669;28;20021;-35
2022/01/11 10:57:58;;;;;;;15.20;8.57;;;20.40;30.90;;;;;;5055669;28;20017;-36
2022/01/11 11:00:25;;;;;;;11.57;7.13;;;20.30;30.80;;;;;;5057635;28;20005;-36
2022/01/11 11:03:18;;;;;;;17.67;7.88;;;20.30;31.00;;;;;;5055637;28;20023;-35
2022/01/11 11:05:49;;;;;;;15.93;8.23;;;20.20;30.60;;;;;;5052244;28;20083;-35
2022/01/11 11:08:20;;;;;;;14.70;8.73;;;20.00;30.80;;;;;;5038518;28;20016;-35
2022/01/11 11:11:02;;;;;;;13.80;7.68;;;20.00;30.60;;;;;;5057454;28;20028;-35
2022/01/11 11:13:39;;;;;;;15.38;8.75;;;20.00;30.60;;;;;;5038973;28;20033;-36
2022/01/11 11:16:12;;;;;;;12.38;7.75;;;20.00;30.10;;;;;;5056586;28;20009;-35
2022/01/11 11:18:39;;;;;;;16.25;7.82;;;20.00;30.00;;;;;;5057788;28;20017;-36
2022/01/11 11:21:18;;;;;;;16.13;8.60;;;19.90;30.30;;;;;;5040766;28;20389;-35
2022/01/11 11:23:44;;;;;;;16.17;8.95;;;19.90;29.70;;;;;;5058979;28;20150;-35
2022/01/11 11:26:10;;;;;;;14.10;8.15;;;19.90;29.70;;;;;;5037307;28;20484;-36
2022/01/11 11:28:36;;;;;;;14.95;7.88;;;19.90;29.60;;;;;;5058427;28;20035;-36
2022/01/11 11:31:02;;;;;;;14.27;8.00;;;20.00;29.50;;;;;;5056956;28;20028;-36
2022/01/11 11:33:28;;;;;;;13.07;7.30;;;20.00;29.40;;;;;;5058293;28;20021;-35
2022/01/11 11:35:54;;;;;;;10.60;7.05;;;20.10;29.30;;;;;;5022394;28;20025;-35
2022/01/11 11:38:21;;;;;;;12.40;7.07;;;20.10;29.20;;;;;;5055297;28;20027;-36
2022/01/11 11:40:52;;;;;;;12.18;7.40;;;20.10;29.10;;;;;;5055619;28;20052;-35
2022/01/11 11:43:18;;;;;;;14.80;7.15;;;20.20;29.10;;;;;;5021391;28;20024;-35
2022/01/11 11:45:44;;;;;;;12.32;7.10;;;20.10;29.00;;;;;;5035743;28;20021;-35
2022/01/11 11:48:10;;;;;;;12.50;7.03;;;20.10;29.10;;;;;;5053494;28;20408;-34
2022/01/11 11:50:51;;;;;;;24.42;8.15;;;19.90;29.40;;;;;;5036232;28;20017;-35
2022/01/11 11:53:39;;;;;;;14.98;7.75;;;19.90;30.00;;;;;;5053702;28;20048;-35
2022/01/11 11:56:25;;;;;;;18.83;7.80;;;20.00;30.50;;;;;;5035829;28;20108;-35
2022/01/11 11:58:56;;;;;;;20.85;8.85;;;20.10;30.80;;;;;;5053356;28;20048;-35
2022/01/11 12:01:46;;;;;;;13.70;7.50;;;20.20;31.10;;;;;;5053178;28;20083;-35
2022/01/11 12:04:26;;;;;;;19.52;7.78;;;20.20;31.30;;;;;;5052367;28;20070;-35
2022/01/11 12:06:55;;;;;;;19.08;7.55;;;20.20;31.40;;;;;;5053608;28;20127;-34
2022/01/11 12:09:21;;;;;;;17.60;7.82;;;20.20;31.40;;;;;;5053558;28;20411;-34
2022/01/11 12:11:49;;;;;;;13.30;7.88;;;20.30;31.40;;;;;;5053245;28;20013;-35
2022/01/11 12:14:28;;;;;;;14.13;7.30;;;20.30;31.20;;;;;;5035086;28;20017;-36
2022/01/11 12:17:22;;;;;;;15.52;7.47;;;20.40;31.30;;;;;;5051895;28;20096;-35
2022/01/11 12:19:52;;;;;;;19.08;7.65;;;20.30;31.20;;;;;;5051564;28;20097;-34
2022/01/11 12:22:23;;;;;;;14.40;7.28;;;20.30;31.10;;;;;;5052332;28;20021;-34
2022/01/11 12:24:50;;;;;;;15.68;8.15;;;20.40;31.10;;;;;;5051828;28;20028;-34
2022/01/11 12:27:19;;;;;;;23.88;7.88;;;20.30;31.00;;;;;;5051806;28;20013;-34
2022/01/11 12:30:01;;;;;;;12.27;7.68;;;20.00;31.20;;;;;;5052124;28;20016;-34
2022/01/11 12:32:27;;;;;;;12.88;7.63;;;20.10;31.20;;;;;;5051989;28;20075;-33
2022/01/11 12:35:08;;;;;;;11.93;7.60;;;19.80;31.30;;;;;;5051486;28;20017;-34
2022/01/11 12:37:35;;;;;;;11.57;6.88;;;19.80;31.10;;;;;;5051434;28;20012;-35
2022/01/11 12:40:01;;;;;;;17.23;7.13;;;19.90;31.20;;;;;;5050373;28;20085;-34
2022/01/11 12:42:31;;;;;;;16.25;7.28;;;20.10;31.50;;;;;;5051546;28;20033;-34
2022/01/11 12:47:45;;;;;;;14.07;7.30;;;20.20;31.80;;;;;;5035607;28;20025;-34
2022/01/11 12:50:16;;;;;;;16.80;7.05;;;19.90;31.80;;;;;;5052999;28;20072;-34